Time;durP1;ratioP1;P1;durP2;ratioP2;P2;SDS_P1;SDS_P2;PMS_P1;PMS_P2;Temp;Humidity;BMP_temperature;BMP_pressure;BME280_temperature;BME280_humidity;BME280_pressure;Samples;Min_cycle;Max_cycle;Signal;HPM_P1;HPM_P2
2022/03/03 00:00:40;;;;;;;0.20;0.20;;;0.30;99.90;;;;;;5103268;27;20042;-87
2022/03/03 00:03:07;;;;;;;0.30;0.30;;;0.30;99.90;;;;;;5137811;27;20096;-87
2022/03/03 00:05:34;;;;;;;0.30;0.30;;;0.30;99.90;;;;;;5103115;27;20142;-81
2022/03/03 00:08:01;;;;;;;0.30;0.30;;;0.30;99.90;;;;;;5137560;27;20043;-87
2022/03/03 00:10:28;;;;;;;0.30;0.30;;;0.60;99.90;;;;;;5136696;27;20035;-82
2022/03/03 00:12:54;;;;;;;0.75;0.75;;;0.40;99.90;;;;;;5103313;27;20652;-81
2022/03/03 00:15:21;;;;;;;1.95;0.73;;;0.30;99.90;;;;;;5137424;27;20034;-87
2022/03/03 00:17:48;;;;;;;0.30;0.30;;;0.20;99.90;;;;;;5136826;27;20385;-87
2022/03/03 00:20:15;;;;;;;0.30;0.30;;;0.60;99.90;;;;;;5120262;27;20043;-81
2022/03/03 00:22:41;;;;;;;0.30;0.30;;;0.20;99.90;;;;;;5119829;27;20074;-86
2022/03/03 00:25:08;;;;;;;0.25;0.25;;;0.20;99.90;;;;;;5120237;27;20035;-81
2022/03/03 00:27:35;;;;;;;0.30;0.30;;;0.20;99.90;;;;;;5119968;27;20403;-87
2022/03/03 00:30:02;;;;;;;0.30;0.30;;;0.20;99.90;;;;;;5119909;27;20126;-81
2022/03/03 00:32:29;;;;;;;0.30;0.30;;;0.20;99.90;;;;;;5136550;27;20126;-81
2022/03/03 00:34:56;;;;;;;0.30;0.30;;;0.20;99.90;;;;;;5103576;27;20528;-87
2022/03/03 00:37:23;;;;;;;1.95;0.52;;;0.30;99.90;;;;;;5103513;27;20043;-87
2022/03/03 00:39:49;;;;;;;0.40;0.40;;;0.10;99.90;;;;;;5119638;27;20050;-81
2022/03/03 00:42:16;;;;;;;0.30;0.30;;;0.10;99.90;;;;;;5119642;27;20043;-87
2022/03/03 00:44:43;;;;;;;0.30;0.30;;;0.10;99.90;;;;;;5119720;27;20160;-86
2022/03/03 00:47:09;;;;;;;0.52;0.52;;;0.70;99.90;;;;;;5119321;27;20043;-87
2022/03/03 00:49:36;;;;;;;0.30;0.30;;;0.80;99.90;;;;;;5102314;27;20077;-81
2022/03/03 00:52:03;;;;;;;0.28;0.28;;;0.10;99.90;;;;;;5102859;27;20046;-81
2022/03/03 00:54:30;;;;;;;0.30;0.30;;;0.10;99.90;;;;;;5119308;27;20130;-87
2022/03/03 00:56:56;;;;;;;1.00;0.57;;;0.60;99.90;;;;;;5119891;27;20043;-81
2022/03/03 00:59:23;;;;;;;0.20;0.20;;;0.10;99.90;;;;;;5119078;27;20101;-81
2022/03/03 01:01:50;;;;;;;0.30;0.30;;;0.10;99.90;;;;;;5101876;27;20164;-87
2022/03/03 01:04:19;;;;;;;0.60;0.60;;;0.00;99.90;;;;;;5119400;27;20043;-82
2022/03/03 01:06:46;;;;;;;0.30;0.30;;;0.00;99.90;;;;;;5102762;27;20031;-87
2022/03/03 01:09:12;;;;;;;0.30;0.30;;;0.00;99.90;;;;;;5102712;27;20844;-87
2022/03/03 01:11:39;;;;;;;0.30;0.30;;;-0.10;99.90;;;;;;5119103;27;20077;-87
2022/03/03 01:14:06;;;;;;;0.30;0.30;;;0.00;99.90;;;;;;5136185;27;20031;-87
2022/03/03 01:16:33;;;;;;;0.30;0.30;;;-0.10;99.90;;;;;;5101743;27;20058;-86
2022/03/03 01:19:00;;;;;;;0.30;0.30;;;-0.10;99.90;;;;;;5136316;27;20039;-86
2022/03/03 01:21:27;;;;;;;0.30;0.30;;;1.30;99.90;;;;;;5136722;27;20084;-86
2022/03/03 01:23:54;;;;;;;0.30;0.30;;;-0.10;99.90;;;;;;5118804;27;20099;-81
2022/03/03 01:26:22;;;;;;;0.30;0.30;;;0.60;99.90;;;;;;5102672;27;20088;-87
2022/03/03 01:28:49;;;;;;;0.30;0.30;;;-0.20;99.90;;;;;;5119405;27;20031;-82
2022/03/03 01:31:16;;;;;;;0.30;0.30;;;-0.20;99.90;;;;;;5101918;27;20115;-81
2022/03/03 01:33:43;;;;;;;0.30;0.30;;;-0.20;99.90;;;;;;5134835;27;20045;-81
2022/03/03 01:36:09;;;;;;;0.30;0.30;;;-0.20;99.90;;;;;;5119125;27;20445;-87
2022/03/03 01:38:36;;;;;;;0.30;0.30;;;-0.20;99.90;;;;;;5117953;27;20043;-82
2022/03/03 01:41:03;;;;;;;0.30;0.30;;;0.40;99.90;;;;;;5118371;27;20035;-81
2022/03/03 01:43:29;;;;;;;0.30;0.30;;;0.30;99.90;;;;;;5135258;27;20085;-81
2022/03/03 01:45:56;;;;;;;0.38;0.38;;;-0.20;99.90;;;;;;5101446;27;20476;-87
2022/03/03 01:48:23;;;;;;;0.30;0.30;;;-0.20;99.90;;;;;;5101461;27;20035;-81
2022/03/03 01:50:49;;;;;;;0.20;0.20;;;0.80;99.90;;;;;;5102298;27;20451;-87
2022/03/03 01:53:16;;;;;;;0.30;0.30;;;-0.30;99.90;;;;;;5118352;27;20433;-81
2022/03/03 01:55:43;;;;;;;0.30;0.30;;;0.70;99.90;;;;;;5134487;27;20491;-82
2022/03/03 01:58:09;;;;;;;0.30;0.30;;;-0.30;99.90;;;;;;5118334;27;20074;-87
2022/03/03 02:00:36;;;;;;;0.38;0.38;;;-0.30;99.90;;;;;;5152222;27;20129;-81
2022/03/03 02:03:03;;;;;;;0.20;0.20;;;-0.40;99.90;;;;;;5118296;27;20045;-81
2022/03/03 02:05:30;;;;;;;0.30;0.30;;;-0.40;99.90;;;;;;5135011;27;20038;-82
2022/03/03 02:07:57;;;;;;;0.30;0.30;;;-0.40;99.90;;;;;;5134846;27;20642;-81
2022/03/03 02:10:24;;;;;;;0.20;0.20;;;-0.20;99.90;;;;;;5118182;27;20240;-81
2022/03/03 02:12:51;;;;;;;0.30;0.30;;;-0.30;99.90;;;;;;5117635;27;20038;-81
2022/03/03 02:15:20;;;;;;;0.30;0.30;;;0.00;99.90;;;;;;5134643;27;20546;-87
2022/03/03 02:17:47;;;;;;;0.25;0.25;;;0.50;99.90;;;;;;5113057;28;20052;-82
2022/03/03 02:20:25;;;;;;;0.30;0.30;;;0.00;99.90;;;;;;5130878;28;20032;-87
2022/03/03 02:22:53;;;;;;;0.30;0.30;;;-0.50;99.90;;;;;;5127012;28;20128;-87
2022/03/03 02:25:20;;;;;;;0.30;0.30;;;-0.50;99.90;;;;;;5097808;28;20137;-87
2022/03/03 02:27:47;;;;;;;0.25;0.25;;;-0.50;99.90;;;;;;5114688;28;20077;-82
2022/03/03 02:30:17;;;;;;;0.40;0.40;;;0.20;99.90;;;;;;5114482;28;20439;-81
2022/03/03 02:32:45;;;;;;;0.30;0.30;;;0.30;99.90;;;;;;5130996;28;20078;-82
2022/03/03 02:35:12;;;;;;;0.30;0.30;;;0.00;99.90;;;;;;5113903;28;20088;-88
2022/03/03 02:37:42;;;;;;;0.52;0.52;;;0.20;99.90;;;;;;5131331;28;20045;-82
2022/03/03 02:40:11;;;;;;;0.30;0.30;;;-0.50;99.90;;;;;;5113933;28;20046;-87
2022/03/03 02:42:38;;;;;;;0.30;0.30;;;-0.50;99.90;;;;;;5148134;28;20460;-82
2022/03/03 02:45:06;;;;;;;0.30;0.30;;;0.60;99.90;;;;;;5112906;28;20127;-88
2022/03/03 02:47:38;;;;;;;0.30;0.30;;;-0.50;99.90;;;;;;5114336;28;20040;-87
2022/03/03 02:50:05;;;;;;;0.20;0.20;;;-0.10;99.90;;;;;;5146912;28;20032;-88
2022/03/03 02:52:32;;;;;;;0.30;0.30;;;-0.50;99.90;;;;;;5098242;28;20063;-82
2022/03/03 02:54:59;;;;;;;0.30;0.30;;;0.50;99.90;;;;;;5113366;28;20079;-83
2022/03/03 03:00:11;;;;;;;0.30;0.30;;;0.50;99.90;;;;;;5119200;28;20123;-88
2022/03/03 03:02:38;;;;;;;0.30;0.30;;;-0.40;99.90;;;;;;5113549;28;20126;-87
2022/03/03 03:05:05;;;;;;;0.30;0.30;;;-0.40;99.90;;;;;;5113007;28;20055;-82
2022/03/03 03:07:33;;;;;;;0.30;0.30;;;-0.40;99.90;;;;;;5130490;28;20039;-82
2022/03/03 03:09:59;;;;;;;0.30;0.30;;;0.30;99.90;;;;;;5112988;28;20040;-81
2022/03/03 03:12:26;;;;;;;0.38;0.38;;;-0.20;99.90;;;;;;5096374;28;20035;-82
2022/03/03 03:14:53;;;;;;;0.30;0.30;;;-0.30;99.90;;;;;;5130237;28;20044;-81
2022/03/03 03:17:20;;;;;;;0.57;0.50;;;-0.40;99.90;;;;;;5096702;28;20051;-81
2022/03/03 03:19:46;;;;;;;0.30;0.30;;;0.50;99.90;;;;;;5130058;28;20043;-83
2022/03/03 03:22:13;;;;;;;0.30;0.30;;;-0.30;99.90;;;;;;5113027;28;20039;-80
2022/03/03 03:24:40;;;;;;;0.20;0.20;;;0.70;99.90;;;;;;5129932;28;20122;-87
2022/03/03 03:27:07;;;;;;;0.30;0.30;;;0.50;99.90;;;;;;5129809;28;20914;-81
2022/03/03 03:29:34;;;;;;;0.30;0.30;;;-0.40;99.90;;;;;;5130900;28;20122;-81
2022/03/03 03:32:01;;;;;;;0.40;0.40;;;-0.40;99.90;;;;;;5100754;28;20038;-81
2022/03/03 03:34:27;;;;;;;0.40;0.40;;;-0.40;99.90;;;;;;5117438;28;20062;-87
2022/03/03 03:36:54;;;;;;;0.30;0.30;;;1.00;99.90;;;;;;5116740;28;20109;-82
2022/03/03 03:39:21;;;;;;;0.30;0.30;;;-0.30;99.90;;;;;;5100839;28;20130;-88
2022/03/03 03:41:47;;;;;;;0.30;0.30;;;0.40;99.90;;;;;;5134668;28;20856;-87
2022/03/03 03:44:14;;;;;;;0.30;0.30;;;0.90;99.90;;;;;;5100087;28;20112;-87
2022/03/03 03:46:41;;;;;;;0.40;0.40;;;1.00;99.90;;;;;;5117345;28;20479;-81
2022/03/03 03:49:07;;;;;;;0.30;0.30;;;0.80;99.90;;;;;;5100254;28;20043;-82
2022/03/03 03:51:37;;;;;;;0.40;0.40;;;-0.40;99.90;;;;;;5100578;28;20032;-87
2022/03/03 03:54:04;;;;;;;0.30;0.30;;;-0.40;99.90;;;;;;5133905;28;20032;-87
2022/03/03 03:56:30;;;;;;;0.30;0.30;;;-0.40;99.90;;;;;;5134133;28;20085;-87
2022/03/03 03:58:57;;;;;;;0.40;0.40;;;-0.40;99.90;;;;;;5116922;28;20097;-81
2022/03/03 04:01:26;;;;;;;0.32;0.32;;;0.70;99.90;;;;;;5117735;28;20588;-87
2022/03/03 04:03:53;;;;;;;0.47;0.47;;;-0.50;99.90;;;;;;5100680;28;20044;-87
2022/03/03 04:06:20;;;;;;;0.30;0.30;;;0.40;99.90;;;;;;5133804;28;20557;-87
2022/03/03 04:08:47;;;;;;;0.35;0.35;;;0.70;99.90;;;;;;5133979;28;20043;-87
2022/03/03 04:11:13;;;;;;;0.40;0.40;;;0.60;99.90;;;;;;5100167;28;20035;-81
2022/03/03 04:13:40;;;;;;;0.40;0.40;;;-0.60;99.90;;;;;;5099969;28;20404;-81
2022/03/03 04:16:07;;;;;;;0.30;0.30;;;-0.60;99.90;;;;;;5116846;28;20107;-87
2022/03/03 04:18:34;;;;;;;0.40;0.40;;;0.10;99.90;;;;;;5133333;28;20094;-81
2022/03/03 04:21:00;;;;;;;0.30;0.30;;;-0.60;99.90;;;;;;5099082;28;20483;-81
2022/03/03 04:23:27;;;;;;;0.40;0.40;;;-0.10;99.90;;;;;;5116742;28;20043;-81
2022/03/03 04:25:54;;;;;;;0.30;0.30;;;-0.40;99.90;;;;;;5099950;28;20108;-87
2022/03/03 04:28:20;;;;;;;0.30;0.30;;;-0.10;99.90;;;;;;5099227;28;20071;-87
2022/03/03 04:30:48;;;;;;;0.30;0.30;;;-0.60;99.90;;;;;;5133769;28;20039;-82
2022/03/03 04:33:15;;;;;;;0.30;0.30;;;-0.50;99.90;;;;;;5116104;28;20046;-82
2022/03/03 04:35:42;;;;;;;0.30;0.30;;;-0.60;99.90;;;;;;5133269;28;20043;-82
2022/03/03 04:38:09;;;;;;;0.30;0.30;;;0.40;99.90;;;;;;5099190;28;20047;-81
2022/03/03 04:40:35;;;;;;;0.30;0.30;;;0.50;99.90;;;;;;5115945;28;20043;-88
2022/03/03 04:43:02;;;;;;;0.30;0.30;;;0.00;99.90;;;;;;5098660;28;20050;-81
2022/03/03 04:45:29;;;;;;;0.60;0.60;;;-0.60;99.90;;;;;;5099325;28;20036;-88
2022/03/03 04:47:55;;;;;;;0.30;0.30;;;0.70;99.90;;;;;;5099009;28;20038;-87
2022/03/03 04:50:22;;;;;;;0.30;0.30;;;0.70;99.90;;;;;;5099323;28;20039;-87
2022/03/03 04:52:49;;;;;;;0.30;0.30;;;0.30;99.90;;;;;;5099145;28;20039;-87
2022/03/03 04:55:15;;;;;;;0.30;0.30;;;-0.60;99.90;;;;;;5132221;28;20512;-81
2022/03/03 04:57:42;;;;;;;0.30;0.30;;;0.20;99.90;;;;;;5099481;28;20043;-87
2022/03/03 05:00:09;;;;;;;0.30;0.30;;;-0.60;99.90;;;;;;5115375;28;20043;-87
2022/03/03 05:02:36;;;;;;;0.20;0.20;;;-0.60;99.90;;;;;;5132782;28;20039;-81
2022/03/03 05:05:05;;;;;;;0.30;0.30;;;-0.70;99.90;;;;;;5131975;28;20122;-87
2022/03/03 05:07:32;;;;;;;0.30;0.30;;;-0.70;99.90;;;;;;5115975;28;20040;-87
2022/03/03 05:09:59;;;;;;;0.30;0.30;;;-0.20;99.90;;;;;;5115483;28;20039;-81
2022/03/03 05:12:26;;;;;;;0.30;0.30;;;-0.80;99.90;;;;;;5115249;28;20095;-88
2022/03/03 05:14:52;;;;;;;0.30;0.30;;;-0.80;99.90;;;;;;5098462;28;20039;-86
2022/03/03 05:17:19;;;;;;;0.30;0.30;;;-0.30;99.90;;;;;;5132048;28;20063;-81
2022/03/03 05:19:46;;;;;;;0.30;0.30;;;-0.90;99.90;;;;;;5099143;28;20043;-86
2022/03/03 05:22:12;;;;;;;0.38;0.38;;;0.20;99.90;;;;;;5098723;28;20400;-82
2022/03/03 05:24:39;;;;;;;0.30;0.30;;;-0.90;99.90;;;;;;5115450;28;20108;-81
2022/03/03 05:27:06;;;;;;;0.22;0.22;;;-0.90;99.90;;;;;;5114765;28;20039;-81
2022/03/03 05:29:34;;;;;;;0.40;0.40;;;-0.90;99.90;;;;;;5114853;28;20149;-87
2022/03/03 05:32:00;;;;;;;0.30;0.30;;;0.30;99.90;;;;;;5114885;28;20126;-81
2022/03/03 05:34:27;;;;;;;0.30;0.30;;;-0.90;99.90;;;;;;5114797;28;20131;-81
2022/03/03 05:36:54;;;;;;;0.40;0.40;;;0.20;99.90;;;;;;5115044;28;20052;-87
2022/03/03 05:39:23;;;;;;;0.30;0.30;;;-0.60;99.90;;;;;;5131810;28;20039;-81
2022/03/03 05:41:49;;;;;;;0.30;0.30;;;-0.90;99.90;;;;;;5148806;28;20082;-87
2022/03/03 05:44:16;;;;;;;0.30;0.30;;;-0.90;99.90;;;;;;5114310;28;20136;-87
2022/03/03 05:46:44;;;;;;;0.28;0.28;;;-0.90;99.90;;;;;;5148803;28;20035;-87
2022/03/03 05:49:10;;;;;;;0.30;0.30;;;0.20;99.90;;;;;;5114740;28;20036;-87
2022/03/03 05:51:37;;;;;;;0.20;0.20;;;0.20;99.90;;;;;;5098551;28;20093;-86
2022/03/03 05:54:04;;;;;;;0.30;0.30;;;-0.90;99.90;;;;;;5115493;28;20039;-87
2022/03/03 05:56:38;;;;;;;0.30;0.30;;;0.10;99.90;;;;;;5116570;27;20039;-81
2022/03/03 05:59:07;;;;;;;0.30;0.30;;;-0.50;99.90;;;;;;5130855;28;20036;-87
2022/03/03 06:01:39;;;;;;;0.40;0.40;;;-0.90;99.90;;;;;;5130748;28;20032;-81
2022/03/03 06:04:08;;;;;;;0.20;0.20;;;0.20;99.90;;;;;;5131649;28;20031;-82
2022/03/03 06:06:37;;;;;;;0.30;0.30;;;-0.90;99.90;;;;;;5114492;28;20090;-87
2022/03/03 06:09:15;;;;;;;0.20;0.20;;;-0.90;99.90;;;;;;5113792;28;20375;-87
2022/03/03 06:11:47;;;;;;;0.30;0.30;;;-0.90;99.90;;;;;;5113949;28;20036;-86
2022/03/03 06:14:19;;;;;;;0.30;0.30;;;-0.90;99.90;;;;;;5131081;28;20118;-82
2022/03/03 06:16:47;;;;;;;0.22;0.22;;;-0.80;99.90;;;;;;5130222;28;20060;-87
2022/03/03 06:19:15;;;;;;;0.40;0.40;;;-0.10;99.90;;;;;;5114882;28;20048;-81
2022/03/03 06:21:45;;;;;;;0.30;0.30;;;-0.80;99.90;;;;;;5116487;28;20031;-88
2022/03/03 06:24:11;;;;;;;0.25;0.25;;;-0.80;99.90;;;;;;5113264;28;20035;-81
2022/03/03 06:26:38;;;;;;;0.30;0.30;;;0.40;99.90;;;;;;5113793;28;20122;-81
2022/03/03 06:29:05;;;;;;;0.30;0.30;;;-0.80;99.90;;;;;;5114206;28;20082;-81
2022/03/03 06:31:32;;;;;;;0.40;0.40;;;-0.80;99.90;;;;;;5096748;28;20123;-81
2022/03/03 06:33:58;;;;;;;0.30;0.30;;;-0.80;99.90;;;;;;5131217;28;20058;-81
2022/03/03 06:36:25;;;;;;;0.30;0.30;;;-0.10;99.90;;;;;;5096624;28;20046;-87
2022/03/03 06:38:52;;;;;;;0.50;0.50;;;-0.80;99.90;;;;;;5113590;28;20042;-86
2022/03/03 06:41:18;;;;;;;0.30;0.30;;;-0.80;99.90;;;;;;5113469;28;20048;-87
2022/03/03 06:43:45;;;;;;;0.40;0.40;;;-0.30;99.90;;;;;;5097154;28;20036;-81
2022/03/03 06:46:18;;;;;;;0.68;0.68;;;-0.80;99.90;;;;;;5096168;28;20043;-85
2022/03/03 06:48:47;;;;;;;0.30;0.30;;;0.50;99.90;;;;;;5131712;28;20130;-81
2022/03/03 06:51:15;;;;;;;0.30;0.30;;;-0.70;99.90;;;;;;5096760;28;20093;-86
2022/03/03 06:53:45;;;;;;;0.50;0.50;;;-0.70;99.90;;;;;;5114494;28;20127;-87
2022/03/03 06:56:12;;;;;;;0.30;0.30;;;-0.70;99.90;;;;;;5147882;28;20043;-81
2022/03/03 06:58:40;;;;;;;0.22;0.22;;;-0.70;99.90;;;;;;5113672;28;20043;-82
2022/03/03 07:01:09;;;;;;;0.30;0.30;;;-0.10;99.90;;;;;;5130140;28;20395;-81
2022/03/03 07:03:37;;;;;;;0.38;0.38;;;0.10;99.90;;;;;;5130111;28;20041;-87
2022/03/03 07:06:04;;;;;;;0.30;0.30;;;-0.50;99.90;;;;;;5113538;28;20086;-87
2022/03/03 07:08:34;;;;;;;0.20;0.20;;;-0.50;99.90;;;;;;5113038;28;20039;-81
2022/03/03 07:11:01;;;;;;;0.30;0.30;;;-0.50;99.90;;;;;;5112989;28;20062;-88
2022/03/03 07:13:28;;;;;;;0.30;0.30;;;-0.50;99.90;;;;;;5113516;28;20039;-87
2022/03/03 07:16:16;;;;;;;0.30;0.30;;;0.80;99.90;;;;;;5130385;28;20052;-87
2022/03/03 07:18:47;;;;;;;0.30;0.30;;;-0.30;99.90;;;;;;5130653;28;20068;-81
2022/03/03 07:21:20;;;;;;;0.30;0.30;;;-0.30;99.90;;;;;;5130390;28;20407;-90
2022/03/03 07:24:17;;;;;;;0.40;0.40;;;-0.30;99.90;;;;;;5147234;28;20039;-81
2022/03/03 07:26:46;;;;;;;;;;;-0.20;99.90;;;;;;5130682;28;20067;-87
2022/03/03 07:29:17;;;;;;;0.30;0.30;;;-0.10;99.90;;;;;;5130090;28;19939;-81
2022/03/03 07:31:57;;;;;;;0.30;0.30;;;-0.30;99.90;;;;;;5129584;28;20521;-81
2022/03/03 07:34:35;;;;;;;0.38;0.38;;;-0.10;99.90;;;;;;5130165;28;20047;-81
2022/03/03 07:37:10;;;;;;;0.30;0.30;;;-0.10;99.90;;;;;;5130002;28;20073;-87
2022/03/03 07:39:45;;;;;;;0.40;0.40;;;0.00;99.90;;;;;;5148043;28;20059;-87
2022/03/03 07:42:18;;;;;;;0.70;0.70;;;1.20;99.90;;;;;;5114344;28;20038;-87
2022/03/03 07:44:48;;;;;;;0.30;0.30;;;0.10;99.90;;;;;;5112940;28;20126;-81
2022/03/03 07:47:15;;;;;;;0.30;0.30;;;-0.90;99.90;;;;;;5129736;28;20040;-81
2022/03/03 07:49:45;;;;;;;0.40;0.40;;;0.20;99.90;;;;;;5096452;28;20036;-87
2022/03/03 07:52:11;;;;;;;0.30;0.30;;;0.30;99.90;;;;;;5129871;28;20481;-81
2022/03/03 07:54:38;;;;;;;0.30;0.30;;;0.30;99.90;;;;;;5130352;28;20046;-88
2022/03/03 07:57:12;;;;;;;0.30;0.30;;;0.40;99.90;;;;;;5113478;28;20039;-89
2022/03/03 07:59:45;;;;;;;0.20;0.20;;;0.40;99.90;;;;;;5129996;28;20122;-88
2022/03/03 08:02:21;;;;;;;0.65;0.50;;;0.40;99.90;;;;;;5130061;28;20082;-80
2022/03/03 08:04:50;;;;;;;0.20;0.20;;;0.60;99.90;;;;;;5128338;28;20086;-81
2022/03/03 08:07:18;;;;;;;0.30;0.30;;;0.50;99.90;;;;;;5094954;28;20044;-82
2022/03/03 08:09:49;;;;;;;0.30;0.30;;;0.60;99.90;;;;;;5112085;28;20071;-83
2022/03/03 08:12:16;;;;;;;0.30;0.30;;;0.70;99.90;;;;;;5096613;28;20648;-82
2022/03/03 08:14:43;;;;;;;0.30;0.30;;;0.80;99.90;;;;;;5095862;28;20052;-82
2022/03/03 08:17:14;;;;;;;0.80;0.43;;;1.80;99.90;;;;;;5097233;28;20070;-90
2022/03/03 08:19:43;;;;;;;0.30;0.30;;;0.90;99.90;;;;;;5116262;28;20050;-81
2022/03/03 08:22:12;;;;;;;0.20;0.20;;;1.00;99.90;;;;;;5132531;28;20561;-82
2022/03/03 08:24:43;;;;;;;0.30;0.30;;;1.10;99.90;;;;;;5112407;28;20035;-82
2022/03/03 08:27:14;;;;;;;0.35;0.35;;;0.80;99.90;;;;;;5115722;28;20031;-81
2022/03/03 08:29:40;;;;;;;0.20;0.20;;;1.30;99.90;;;;;;5099667;28;20122;-89
2022/03/03 08:32:16;;;;;;;0.30;0.30;;;1.30;99.90;;;;;;5097769;28;20120;-81
2022/03/03 08:34:46;;;;;;;0.55;0.55;;;1.60;99.90;;;;;;5131882;28;20095;-81
2022/03/03 08:37:44;;;;;;;0.30;0.30;;;1.50;99.90;;;;;;5132035;28;20054;-80
2022/03/03 08:40:17;;;;;;;0.20;0.20;;;1.70;99.90;;;;;;5127350;28;20054;-81
2022/03/03 08:42:48;;;;;;;0.20;0.20;;;2.70;99.90;;;;;;5125984;28;20047;-81
2022/03/03 08:45:18;;;;;;;0.30;0.30;;;2.40;99.90;;;;;;5122498;28;20074;-81
2022/03/03 08:47:56;;;;;;;0.25;0.25;;;2.00;99.90;;;;;;5132354;28;20050;-87
2022/03/03 08:50:27;;;;;;;0.22;0.22;;;2.10;99.90;;;;;;5147245;28;20054;-88
2022/03/03 08:52:58;;;;;;;0.30;0.30;;;2.20;99.90;;;;;;5132084;28;20126;-88
2022/03/03 08:55:27;;;;;;;0.20;0.20;;;2.70;99.90;;;;;;5132197;28;20499;-83
2022/03/03 08:57:54;;;;;;;0.30;0.30;;;2.30;99.90;;;;;;5128793;28;20100;-89
2022/03/03 09:00:21;;;;;;;0.20;0.20;;;2.50;99.90;;;;;;5115910;28;20039;-82
2022/03/03 09:02:49;;;;;;;0.40;0.40;;;3.40;99.90;;;;;;5131992;28;20179;-88
2022/03/03 09:05:16;;;;;;;0.20;0.20;;;2.70;99.90;;;;;;5112021;28;20047;-81
2022/03/03 09:07:43;;;;;;;0.20;0.20;;;2.80;99.90;;;;;;5115179;28;20036;-88
2022/03/03 09:10:10;;;;;;;0.22;0.22;;;2.90;99.90;;;;;;5109569;28;20039;-81
2022/03/03 09:12:38;;;;;;;0.20;0.20;;;3.10;99.90;;;;;;5114565;28;20737;-89
2022/03/03 09:15:06;;;;;;;0.30;0.30;;;3.10;99.90;;;;;;5100341;27;20092;-89
2022/03/03 09:17:34;;;;;;;0.20;0.20;;;3.20;99.90;;;;;;5135372;27;20059;-82
2022/03/03 09:20:06;;;;;;;0.30;0.30;;;3.30;99.90;;;;;;5129545;28;20605;-81
2022/03/03 09:22:33;;;;;;;0.28;0.28;;;3.40;99.90;;;;;;5124623;28;20050;-82
2022/03/03 09:25:00;;;;;;;0.20;0.20;;;3.50;99.90;;;;;;5130956;28;20104;-82
2022/03/03 09:27:27;;;;;;;0.20;0.20;;;3.70;99.90;;;;;;5114408;28;20035;-83
2022/03/03 09:29:53;;;;;;;0.20;0.20;;;4.20;99.90;;;;;;5097577;28;20047;-88
2022/03/03 09:32:23;;;;;;;0.20;0.20;;;3.90;99.90;;;;;;5098858;28;20104;-82
2022/03/03 09:34:50;;;;;;;0.20;0.20;;;5.10;99.90;;;;;;5113892;28;20039;-82
2022/03/03 09:37:17;;;;;;;0.20;0.20;;;5.00;99.90;;;;;;5114922;28;20069;-82
2022/03/03 09:39:48;;;;;;;0.10;0.10;;;4.30;99.90;;;;;;5132118;28;20475;-82
2022/03/03 09:42:14;;;;;;;0.10;0.10;;;4.50;99.90;;;;;;5098620;28;20051;-81
2022/03/03 09:44:41;;;;;;;0.20;0.20;;;4.50;99.90;;;;;;5113213;28;20050;-88
2022/03/03 09:47:11;;;;;;;0.10;0.10;;;4.70;99.90;;;;;;5095529;28;20071;-82
2022/03/03 09:49:39;;;;;;;0.20;0.20;;;4.80;99.90;;;;;;5108443;28;20475;-83
2022/03/03 09:52:18;;;;;;;0.15;0.15;;;4.90;99.90;;;;;;5129566;28;20089;-82
2022/03/03 09:54:49;;;;;;;0.20;0.20;;;5.00;99.90;;;;;;5130958;28;20098;-82
2022/03/03 09:57:17;;;;;;;0.20;0.20;;;5.90;99.90;;;;;;5131258;28;20093;-90
2022/03/03 09:59:47;;;;;;;0.20;0.20;;;5.20;99.90;;;;;;5113582;28;20558;-90
2022/03/03 10:02:14;;;;;;;0.10;0.10;;;5.30;99.90;;;;;;5113973;28;20472;-89
2022/03/03 10:04:41;;;;;;;0.20;0.20;;;5.80;99.90;;;;;;5130369;28;20077;-89
2022/03/03 10:07:10;;;;;;;0.20;0.20;;;5.50;99.90;;;;;;5113251;28;20403;-82
2022/03/03 10:12:27;;;;;;;0.25;0.25;;;6.20;99.90;;;;;;5133858;28;20571;-82
2022/03/03 10:14:58;;;;;;;0.10;0.10;;;6.30;99.90;;;;;;5112833;28;20075;-83
2022/03/03 10:17:36;;;;;;;0.10;0.10;;;5.90;99.90;;;;;;5109945;28;20139;-88
2022/03/03 10:20:05;;;;;;;0.10;0.10;;;6.10;99.90;;;;;;5104938;28;20450;-89
2022/03/03 10:22:44;;;;;;;0.15;0.15;;;6.10;99.90;;;;;;5127453;28;20097;-83
2022/03/03 10:25:14;;;;;;;0.25;0.25;;;6.30;99.90;;;;;;5104310;28;20102;-86
2022/03/03 10:27:41;;;;;;;0.10;0.10;;;6.50;99.90;;;;;;5108622;28;20572;-89
2022/03/03 10:30:09;;;;;;;0.10;0.10;;;7.60;99.90;;;;;;5075250;28;20052;-89
2022/03/03 10:32:38;;;;;;;0.10;0.10;;;6.70;99.90;;;;;;5075987;28;20115;-88
2022/03/03 10:35:16;;;;;;;0.10;0.10;;;7.10;99.90;;;;;;5077763;28;20044;-88
2022/03/03 10:37:44;;;;;;;0.10;0.10;;;6.80;99.90;;;;;;5061959;28;20035;-85
2022/03/03 10:40:13;;;;;;;0.10;0.10;;;6.90;99.90;;;;;;5092755;28;20089;-82
2022/03/03 10:42:48;;;;;;;0.10;0.10;;;7.00;99.90;;;;;;5112777;28;20448;-82
2022/03/03 10:45:18;;;;;;;0.10;0.10;;;7.00;99.90;;;;;;5110072;28;20048;-87
2022/03/03 10:47:57;;;;;;;0.10;0.10;;;7.00;99.90;;;;;;5099860;28;20040;-88
2022/03/03 10:50:24;;;;;;;0.10;0.10;;;7.10;99.90;;;;;;5109832;28;20043;-86
2022/03/03 10:52:50;;;;;;;0.10;0.10;;;7.10;99.90;;;;;;5093699;28;20036;-82
2022/03/03 10:55:18;;;;;;;0.13;0.13;;;7.20;99.90;;;;;;5076074;28;20044;-88
2022/03/03 10:57:48;;;;;;;0.10;0.10;;;7.30;99.90;;;;;;5076429;28;20063;-86
2022/03/03 11:00:20;;;;;;;0.10;0.10;;;7.20;99.90;;;;;;5086213;28;20105;-82
2022/03/03 11:02:49;;;;;;;0.10;0.10;;;7.30;99.90;;;;;;5072896;28;20770;-82
2022/03/03 11:05:18;;;;;;;0.10;0.10;;;7.30;99.90;;;;;;5072806;28;20048;-88
2022/03/03 11:07:47;;;;;;;0.10;0.10;;;7.40;99.90;;;;;;5056046;28;20043;-82
2022/03/03 11:10:17;;;;;;;0.10;0.10;;;7.40;99.90;;;;;;5055698;28;20048;-81
2022/03/03 11:12:45;;;;;;;0.10;0.10;;;7.70;99.90;;;;;;5055828;28;20045;-81
2022/03/03 11:15:14;;;;;;;0.10;0.10;;;7.60;99.90;;;;;;5057286;28;20039;-81
2022/03/03 11:17:42;;;;;;;0.08;0.08;;;7.70;99.90;;;;;;5077437;28;20066;-82
2022/03/03 11:20:12;;;;;;;0.10;0.10;;;7.70;99.90;;;;;;5092691;28;20101;-90
2022/03/03 11:22:40;;;;;;;0.00;0.00;;;7.80;99.90;;;;;;5092382;28;20046;-88
2022/03/03 11:25:11;;;;;;;0.10;0.10;;;7.80;99.90;;;;;;5060070;28;20036;-89
2022/03/03 11:27:40;;;;;;;0.20;0.20;;;7.90;99.90;;;;;;5092276;28;20511;-82
2022/03/03 11:30:28;;;;;;;0.00;0.00;;;7.90;99.90;;;;;;5092717;28;20043;-87
2022/03/03 11:33:17;;;;;;;0.10;0.10;;;7.90;99.90;;;;;;5094281;28;20185;-81
2022/03/03 11:35:58;;;;;;;0.10;0.10;;;7.90;99.90;;;;;;5092308;28;20044;-81
2022/03/03 11:38:28;;;;;;;0.10;0.10;;;7.90;99.90;;;;;;5093234;28;20036;-86
2022/03/03 11:40:59;;;;;;;0.13;0.13;;;7.90;99.90;;;;;;5092077;28;20665;-82
2022/03/03 11:43:27;;;;;;;0.22;0.22;;;7.90;99.90;;;;;;5081346;28;20066;-81
2022/03/03 11:45:57;;;;;;;2.55;0.43;;;7.90;99.90;;;;;;5112372;28;20091;-82
2022/03/03 11:48:35;;;;;;;0.00;0.00;;;7.90;99.90;;;;;;5112664;28;20046;-81
2022/03/03 11:51:33;;;;;;;0.10;0.10;;;8.00;99.90;;;;;;5114955;28;20523;-87
2022/03/03 11:54:11;;;;;;;0.10;0.10;;;8.00;99.90;;;;;;5116352;28;20032;-87
2022/03/03 11:57:10;;;;;;;0.10;0.10;;;7.90;99.90;;;;;;5115682;28;20031;-81
2022/03/03 11:59:42;;;;;;;0.10;0.10;;;8.00;99.90;;;;;;5096454;28;20043;-83
2022/03/03 12:02:09;;;;;;;0.10;0.10;;;7.90;99.90;;;;;;5122341;27;20636;-89
2022/03/03 12:04:37;;;;;;;0.00;0.00;;;8.00;99.90;;;;;;5136894;27;20039;-87
2022/03/03 12:07:04;;;;;;;0.47;0.47;;;8.00;99.90;;;;;;5090759;28;20043;-88
2022/03/03 12:09:33;;;;;;;0.00;0.00;;;7.90;99.90;;;;;;5116217;28;20040;-82
2022/03/03 12:12:09;;;;;;;0.20;0.20;;;8.10;99.90;;;;;;5099183;28;20092;-82
2022/03/03 12:14:49;;;;;;;;;;;8.00;99.90;;;;;;5117708;28;20039;-88
2022/03/03 12:17:39;;;;;;;0.00;0.00;;;8.10;99.90;;;;;;5115252;28;20402;-82
2022/03/03 12:20:24;;;;;;;0.10;0.10;;;8.10;99.90;;;;;;5133039;28;20833;-88
2022/03/03 12:23:13;;;;;;;0.10;0.10;;;8.20;99.90;;;;;;5116470;28;20042;-82
2022/03/03 12:25:51;;;;;;;0.00;0.00;;;8.20;99.90;;;;;;5116226;28;20123;-87
2022/03/03 12:28:23;;;;;;;0.10;0.10;;;8.20;99.90;;;;;;5115618;28;20039;-87
2022/03/03 12:30:52;;;;;;;0.20;0.20;;;8.30;99.90;;;;;;5127554;27;20066;-88
2022/03/03 12:33:26;;;;;;;0.10;0.10;;;8.20;99.90;;;;;;5136982;27;20042;-82
2022/03/03 12:36:02;;;;;;;0.10;0.10;;;8.20;99.90;;;;;;5136126;27;20104;-88
2022/03/03 12:38:29;;;;;;;0.10;0.10;;;8.20;99.90;;;;;;5123813;27;20040;-81
2022/03/03 12:40:56;;;;;;;0.00;0.00;;;8.20;99.90;;;;;;5110591;27;20035;-81
2022/03/03 12:43:23;;;;;;;0.10;0.10;;;8.20;99.90;;;;;;5126033;28;20050;-88
2022/03/03 12:45:50;;;;;;;0.10;0.10;;;8.20;99.90;;;;;;5098913;28;20036;-82
2022/03/03 12:48:28;;;;;;;0.00;0.00;;;8.20;99.90;;;;;;5099019;28;20096;-81
2022/03/03 12:51:03;;;;;;;0.10;0.10;;;8.30;99.90;;;;;;5098269;28;20040;-86
2022/03/03 12:53:37;;;;;;;0.07;0.07;;;8.30;99.90;;;;;;5099442;28;20488;-91
2022/03/03 12:56:07;;;;;;;0.05;0.05;;;8.30;99.90;;;;;;5099626;28;20047;-90
2022/03/03 12:58:35;;;;;;;0.10;0.10;;;8.30;99.90;;;;;;5099568;28;20046;-90
2022/03/03 13:01:03;;;;;;;0.20;0.15;;;8.40;99.80;;;;;;5099888;28;20036;-91
2022/03/03 13:03:37;;;;;;;0.00;0.00;;;8.30;99.30;;;;;;5115455;28;20043;-91
2022/03/03 13:06:04;;;;;;;3.85;0.55;;;8.30;98.50;;;;;;5115768;28;20040;-90
2022/03/03 13:08:36;;;;;;;0.03;0.03;;;8.40;99.90;;;;;;5115815;28;20039;-90